sensor_id;sensor_type;location;lat;lon;timestamp;P1;durP1;ratioP1;P2;durP2;ratioP2
61673;SDS011;47573;43.832;5.974;2023-09-30T00:05:34;299.27;;;212.13;;
61673;SDS011;47573;43.832;5.974;2023-09-30T00:12:16;291.02;;;211.00;;
61673;SDS011;47573;43.832;5.974;2023-09-30T00:18:57;279.83;;;197.30;;
61673;SDS011;47573;43.832;5.974;2023-09-30T00:25:38;271.10;;;192.77;;
61673;SDS011;47573;43.832;5.974;2023-09-30T00:32:20;274.13;;;191.98;;
61673;SDS011;47573;43.832;5.974;2023-09-30T00:39:00;264.90;;;189.03;;
61673;SDS011;47573;43.832;5.974;2023-09-30T00:45:41;249.30;;;175.50;;
61673;SDS011;47573;43.832;5.974;2023-09-30T00:52:24;260.20;;;185.70;;
61673;SDS011;47573;43.832;5.974;2023-09-30T00:59:05;265.02;;;188.23;;
61673;SDS011;47573;43.832;5.974;2023-09-30T01:05:46;268.20;;;191.02;;
61673;SDS011;47573;43.832;5.974;2023-09-30T01:12:29;264.63;;;188.20;;
61673;SDS011;47573;43.832;5.974;2023-09-30T01:19:09;245.67;;;170.63;;
61673;SDS011;47573;43.832;5.974;2023-09-30T01:25:51;238.20;;;163.30;;
61673;SDS011;47573;43.832;5.974;2023-09-30T01:32:32;221.67;;;152.20;;
61673;SDS011;47573;43.832;5.974;2023-09-30T01:39:13;228.70;;;154.38;;
61673;SDS011;47573;43.832;5.974;2023-09-30T01:45:55;233.68;;;159.95;;
61673;SDS011;47573;43.832;5.974;2023-09-30T01:52:36;227.73;;;157.55;;
61673;SDS011;47573;43.832;5.974;2023-09-30T01:59:17;228.52;;;159.27;;
61673;SDS011;47573;43.832;5.974;2023-09-30T02:05:59;226.88;;;158.60;;
61673;SDS011;47573;43.832;5.974;2023-09-30T02:12:39;231.13;;;159.83;;
61673;SDS011;47573;43.832;5.974;2023-09-30T02:19:20;236.70;;;162.93;;
61673;SDS011;47573;43.832;5.974;2023-09-30T02:26:02;226.65;;;156.85;;
61673;SDS011;47573;43.832;5.974;2023-09-30T02:32:43;221.15;;;153.90;;
61673;SDS011;47573;43.832;5.974;2023-09-30T02:39:23;213.35;;;149.15;;
61673;SDS011;47573;43.832;5.974;2023-09-30T02:46:05;213.77;;;147.40;;
61673;SDS011;47573;43.832;5.974;2023-09-30T02:52:46;208.00;;;144.10;;
61673;SDS011;47573;43.832;5.974;2023-09-30T02:59:27;215.65;;;147.90;;
61673;SDS011;47573;43.832;5.974;2023-09-30T03:06:09;202.90;;;142.20;;
61673;SDS011;47573;43.832;5.974;2023-09-30T03:12:50;207.57;;;143.03;;
61673;SDS011;47573;43.832;5.974;2023-09-30T03:19:30;200.02;;;137.73;;
61673;SDS011;47573;43.832;5.974;2023-09-30T03:26:12;203.70;;;136.85;;
61673;SDS011;47573;43.832;5.974;2023-09-30T03:32:52;187.73;;;130.77;;
61673;SDS011;47573;43.832;5.974;2023-09-30T03:39:33;186.77;;;129.83;;
61673;SDS011;47573;43.832;5.974;2023-09-30T03:46:15;187.38;;;129.65;;
61673;SDS011;47573;43.832;5.974;2023-09-30T03:53:00;189.48;;;127.55;;
61673;SDS011;47573;43.832;5.974;2023-09-30T03:59:41;179.38;;;124.40;;
61673;SDS011;47573;43.832;5.974;2023-09-30T04:06:23;174.60;;;121.23;;
61673;SDS011;47573;43.832;5.974;2023-09-30T04:13:04;174.67;;;120.23;;
61673;SDS011;47573;43.832;5.974;2023-09-30T04:19:44;169.98;;;117.63;;
61673;SDS011;47573;43.832;5.974;2023-09-30T04:26:26;170.13;;;118.60;;
61673;SDS011;47573;43.832;5.974;2023-09-30T04:33:07;167.02;;;115.75;;
61673;SDS011;47573;43.832;5.974;2023-09-30T04:39:48;163.55;;;113.78;;
61673;SDS011;47573;43.832;5.974;2023-09-30T04:46:30;163.65;;;112.53;;
61673;SDS011;47573;43.832;5.974;2023-09-30T04:53:10;163.40;;;113.27;;
61673;SDS011;47573;43.832;5.974;2023-09-30T04:59:51;160.70;;;109.23;;
61673;SDS011;47573;43.832;5.974;2023-09-30T05:06:33;143.13;;;101.10;;
61673;SDS011;47573;43.832;5.974;2023-09-30T05:13:14;85.70;;;58.63;;
61673;SDS011;47573;43.832;5.974;2023-09-30T05:19:55;70.13;;;49.08;;
61673;SDS011;47573;43.832;5.974;2023-09-30T05:26:37;173.70;;;104.70;;
61673;SDS011;47573;43.832;5.974;2023-09-30T05:33:18;51.73;;;32.53;;
61673;SDS011;47573;43.832;5.974;2023-09-30T05:39:58;201.38;;;66.93;;
61673;SDS011;47573;43.832;5.974;2023-09-30T05:46:40;34.20;;;21.40;;
61673;SDS011;47573;43.832;5.974;2023-09-30T05:53:21;183.27;;;60.60;;
61673;SDS011;47573;43.832;5.974;2023-09-30T06:00:02;196.67;;;65.73;;
61673;SDS011;47573;43.832;5.974;2023-09-30T06:06:44;45.58;;;22.20;;
61673;SDS011;47573;43.832;5.974;2023-09-30T06:13:25;25.52;;;17.58;;
61673;SDS011;47573;43.832;5.974;2023-09-30T06:20:06;102.82;;;36.92;;
61673;SDS011;47573;43.832;5.974;2023-09-30T06:26:48;28.35;;;18.17;;
61673;SDS011;47573;43.832;5.974;2023-09-30T06:33:29;433.83;;;161.43;;
61673;SDS011;47573;43.832;5.974;2023-09-30T06:40:10;36.97;;;18.53;;
61673;SDS011;47573;43.832;5.974;2023-09-30T06:46:52;19.52;;;12.30;;
61673;SDS011;47573;43.832;5.974;2023-09-30T06:53:33;485.63;;;172.87;;
61673;SDS011;47573;43.832;5.974;2023-09-30T07:00:14;45.88;;;19.02;;
61673;SDS011;47573;43.832;5.974;2023-09-30T07:06:56;27.65;;;14.10;;
61673;SDS011;47573;43.832;5.974;2023-09-30T07:13:36;16.27;;;11.03;;
61673;SDS011;47573;43.832;5.974;2023-09-30T07:20:17;17.67;;;12.13;;
61673;SDS011;47573;43.832;5.974;2023-09-30T07:26:59;19.27;;;13.18;;
61673;SDS011;47573;43.832;5.974;2023-09-30T07:33:40;86.53;;;42.30;;
61673;SDS011;47573;43.832;5.974;2023-09-30T07:40:20;22.40;;;15.20;;
61673;SDS011;47573;43.832;5.974;2023-09-30T07:47:02;29.88;;;21.42;;
61673;SDS011;47573;43.832;5.974;2023-09-30T07:53:43;45.85;;;33.45;;
61673;SDS011;47573;43.832;5.974;2023-09-30T08:00:24;46.25;;;34.50;;
61673;SDS011;47573;43.832;5.974;2023-09-30T08:07:06;49.75;;;36.70;;
61673;SDS011;47573;43.832;5.974;2023-09-30T08:13:46;49.40;;;35.23;;
61673;SDS011;47573;43.832;5.974;2023-09-30T08:20:27;47.15;;;35.25;;
61673;SDS011;47573;43.832;5.974;2023-09-30T08:27:09;49.28;;;34.63;;
61673;SDS011;47573;43.832;5.974;2023-09-30T08:33:50;44.43;;;33.10;;
61673;SDS011;47573;43.832;5.974;2023-09-30T08:40:31;43.50;;;32.80;;
61673;SDS011;47573;43.832;5.974;2023-09-30T08:47:13;42.90;;;32.28;;
61673;SDS011;47573;43.832;5.974;2023-09-30T08:53:55;39.83;;;30.88;;
61673;SDS011;47573;43.832;5.974;2023-09-30T09:00:37;41.78;;;30.17;;
61673;SDS011;47573;43.832;5.974;2023-09-30T09:07:20;39.57;;;29.07;;
61673;SDS011;47573;43.832;5.974;2023-09-30T09:14:00;37.83;;;27.75;;
61673;SDS011;47573;43.832;5.974;2023-09-30T09:20:41;35.78;;;27.73;;
61673;SDS011;47573;43.832;5.974;2023-09-30T09:27:23;35.33;;;26.58;;
61673;SDS011;47573;43.832;5.974;2023-09-30T09:34:04;32.42;;;25.20;;
61673;SDS011;47573;43.832;5.974;2023-09-30T09:40:58;34.10;;;25.23;;
61673;SDS011;47573;43.832;5.974;2023-09-30T09:47:41;28.73;;;21.33;;
61673;SDS011;47573;43.832;5.974;2023-09-30T09:54:21;34.60;;;24.42;;
61673;SDS011;47573;43.832;5.974;2023-09-30T10:01:03;33.78;;;24.55;;
61673;SDS011;47573;43.832;5.974;2023-09-30T10:14:30;29.45;;;22.63;;
61673;SDS011;47573;43.832;5.974;2023-09-30T10:21:11;32.33;;;23.43;;
61673;SDS011;47573;43.832;5.974;2023-09-30T10:27:53;30.00;;;22.07;;
61673;SDS011;47573;43.832;5.974;2023-09-30T10:34:34;30.92;;;23.08;;
61673;SDS011;47573;43.832;5.974;2023-09-30T10:41:48;29.98;;;21.83;;
61673;SDS011;47573;43.832;5.974;2023-09-30T10:48:38;30.30;;;21.75;;
61673;SDS011;47573;43.832;5.974;2023-09-30T10:55:19;28.48;;;21.10;;
61673;SDS011;47573;43.832;5.974;2023-09-30T11:01:59;28.10;;;21.52;;
61673;SDS011;47573;43.832;5.974;2023-09-30T11:08:43;26.85;;;19.90;;
61673;SDS011;47573;43.832;5.974;2023-09-30T11:15:25;27.20;;;20.75;;
61673;SDS011;47573;43.832;5.974;2023-09-30T11:22:06;24.83;;;20.20;;
61673;SDS011;47573;43.832;5.974;2023-09-30T11:28:48;25.13;;;20.23;;
61673;SDS011;47573;43.832;5.974;2023-09-30T11:35:29;26.00;;;19.95;;
61673;SDS011;47573;43.832;5.974;2023-09-30T11:42:14;25.38;;;19.13;;
61673;SDS011;47573;43.832;5.974;2023-09-30T11:48:57;25.10;;;19.77;;
61673;SDS011;47573;43.832;5.974;2023-09-30T11:55:41;25.30;;;19.70;;
61673;SDS011;47573;43.832;5.974;2023-09-30T12:02:21;26.35;;;19.25;;
61673;SDS011;47573;43.832;5.974;2023-09-30T12:09:03;24.15;;;18.80;;
61673;SDS011;47573;43.832;5.974;2023-09-30T12:22:25;23.57;;;17.63;;
61673;SDS011;47573;43.832;5.974;2023-09-30T12:29:07;24.15;;;18.88;;
61673;SDS011;47573;43.832;5.974;2023-09-30T12:35:48;23.20;;;17.75;;
61673;SDS011;47573;43.832;5.974;2023-09-30T12:42:29;23.98;;;17.90;;
61673;SDS011;47573;43.832;5.974;2023-09-30T12:49:11;21.75;;;17.00;;
61673;SDS011;47573;43.832;5.974;2023-09-30T12:55:52;21.50;;;17.27;;
61673;SDS011;47573;43.832;5.974;2023-09-30T13:02:32;20.60;;;16.55;;
61673;SDS011;47573;43.832;5.974;2023-09-30T13:09:14;21.15;;;16.52;;
61673;SDS011;47573;43.832;5.974;2023-09-30T13:15:55;20.30;;;16.23;;
61673;SDS011;47573;43.832;5.974;2023-09-30T13:22:35;19.87;;;15.70;;
61673;SDS011;47573;43.832;5.974;2023-09-30T13:29:17;21.33;;;16.60;;
61673;SDS011;47573;43.832;5.974;2023-09-30T13:35:58;20.25;;;15.50;;
61673;SDS011;47573;43.832;5.974;2023-09-30T13:42:39;19.88;;;15.48;;
61673;SDS011;47573;43.832;5.974;2023-09-30T13:49:21;19.63;;;14.98;;
61673;SDS011;47573;43.832;5.974;2023-09-30T13:56:02;18.45;;;14.95;;
61673;SDS011;47573;43.832;5.974;2023-09-30T14:02:43;20.03;;;14.80;;
61673;SDS011;47573;43.832;5.974;2023-09-30T14:09:25;19.70;;;14.77;;
61673;SDS011;47573;43.832;5.974;2023-09-30T14:22:46;19.02;;;14.13;;
61673;SDS011;47573;43.832;5.974;2023-09-30T14:29:28;17.92;;;14.00;;
61673;SDS011;47573;43.832;5.974;2023-09-30T14:36:10;15.77;;;12.98;;
61673;SDS011;47573;43.832;5.974;2023-09-30T14:42:50;16.55;;;13.50;;
61673;SDS011;47573;43.832;5.974;2023-09-30T14:49:32;16.45;;;13.13;;
61673;SDS011;47573;43.832;5.974;2023-09-30T14:56:16;16.15;;;12.82;;
61673;SDS011;47573;43.832;5.974;2023-09-30T15:02:57;15.10;;;12.38;;
61673;SDS011;47573;43.832;5.974;2023-09-30T15:09:39;16.70;;;13.30;;
61673;SDS011;47573;43.832;5.974;2023-09-30T15:16:20;15.95;;;12.50;;
61673;SDS011;47573;43.832;5.974;2023-09-30T15:29:44;36.33;;;26.33;;
61673;SDS011;47573;43.832;5.974;2023-09-30T15:43:05;63.70;;;46.50;;
61673;SDS011;47573;43.832;5.974;2023-09-30T15:49:47;63.42;;;47.70;;
61673;SDS011;47573;43.832;5.974;2023-09-30T15:56:27;68.25;;;51.20;;
61673;SDS011;47573;43.832;5.974;2023-09-30T16:03:08;70.13;;;52.38;;
61673;SDS011;47573;43.832;5.974;2023-09-30T16:09:51;91.45;;;69.95;;
61673;SDS011;47573;43.832;5.974;2023-09-30T16:16:32;93.13;;;68.18;;
61673;SDS011;47573;43.832;5.974;2023-09-30T16:23:12;90.68;;;68.65;;
61673;SDS011;47573;43.832;5.974;2023-09-30T16:29:54;100.47;;;74.88;;
61673;SDS011;47573;43.832;5.974;2023-09-30T16:36:35;95.95;;;70.45;;
61673;SDS011;47573;43.832;5.974;2023-09-30T16:43:16;101.22;;;75.45;;
61673;SDS011;47573;43.832;5.974;2023-09-30T16:49:58;92.38;;;68.93;;
61673;SDS011;47573;43.832;5.974;2023-09-30T16:56:38;90.82;;;67.70;;
61673;SDS011;47573;43.832;5.974;2023-09-30T17:03:19;75.13;;;55.35;;
61673;SDS011;47573;43.832;5.974;2023-09-30T17:10:01;66.97;;;48.25;;
61673;SDS011;47573;43.832;5.974;2023-09-30T17:16:42;55.00;;;36.63;;
61673;SDS011;47573;43.832;5.974;2023-09-30T17:23:22;64.63;;;44.03;;
61673;SDS011;47573;43.832;5.974;2023-09-30T17:30:05;20.95;;;14.90;;
61673;SDS011;47573;43.832;5.974;2023-09-30T17:36:47;36.83;;;27.42;;
61673;SDS011;47573;43.832;5.974;2023-09-30T17:43:28;34.05;;;25.00;;
61673;SDS011;47573;43.832;5.974;2023-09-30T17:50:10;29.60;;;23.70;;
61673;SDS011;47573;43.832;5.974;2023-09-30T17:56:51;88.15;;;62.85;;
61673;SDS011;47573;43.832;5.974;2023-09-30T18:03:31;45.55;;;34.33;;
61673;SDS011;47573;43.832;5.974;2023-09-30T18:10:13;72.78;;;55.42;;
61673;SDS011;47573;43.832;5.974;2023-09-30T18:16:54;65.90;;;50.33;;
61673;SDS011;47573;43.832;5.974;2023-09-30T18:23:35;72.38;;;54.83;;
61673;SDS011;47573;43.832;5.974;2023-09-30T18:30:17;72.35;;;54.67;;
61673;SDS011;47573;43.832;5.974;2023-09-30T18:36:57;93.70;;;66.55;;
61673;SDS011;47573;43.832;5.974;2023-09-30T18:43:38;121.18;;;89.13;;
61673;SDS011;47573;43.832;5.974;2023-09-30T18:50:20;105.63;;;80.32;;
61673;SDS011;47573;43.832;5.974;2023-09-30T18:57:00;90.47;;;67.83;;
61673;SDS011;47573;43.832;5.974;2023-09-30T19:03:41;83.60;;;62.53;;
61673;SDS011;47573;43.832;5.974;2023-09-30T19:10:23;77.63;;;56.50;;
61673;SDS011;47573;43.832;5.974;2023-09-30T19:17:04;63.63;;;44.60;;
61673;SDS011;47573;43.832;5.974;2023-09-30T19:23:44;67.80;;;46.17;;
61673;SDS011;47573;43.832;5.974;2023-09-30T19:30:26;63.03;;;43.08;;
61673;SDS011;47573;43.832;5.974;2023-09-30T19:37:07;78.15;;;51.83;;
61673;SDS011;47573;43.832;5.974;2023-09-30T19:43:47;78.83;;;49.53;;
61673;SDS011;47573;43.832;5.974;2023-09-30T19:50:29;65.95;;;43.70;;
61673;SDS011;47573;43.832;5.974;2023-09-30T19:57:10;70.60;;;43.80;;
61673;SDS011;47573;43.832;5.974;2023-09-30T20:03:51;73.25;;;43.70;;
61673;SDS011;47573;43.832;5.974;2023-09-30T20:10:33;74.93;;;45.90;;
61673;SDS011;47573;43.832;5.974;2023-09-30T20:17:14;68.90;;;40.47;;
61673;SDS011;47573;43.832;5.974;2023-09-30T20:23:55;59.08;;;37.67;;
61673;SDS011;47573;43.832;5.974;2023-09-30T20:30:37;68.75;;;40.80;;
61673;SDS011;47573;43.832;5.974;2023-09-30T20:37:17;60.23;;;37.03;;
61673;SDS011;47573;43.832;5.974;2023-09-30T20:43:58;56.03;;;34.73;;
61673;SDS011;47573;43.832;5.974;2023-09-30T20:50:40;65.72;;;40.53;;
61673;SDS011;47573;43.832;5.974;2023-09-30T20:57:20;60.00;;;38.07;;
61673;SDS011;47573;43.832;5.974;2023-09-30T21:04:01;61.55;;;39.05;;
61673;SDS011;47573;43.832;5.974;2023-09-30T21:10:43;52.22;;;35.17;;
61673;SDS011;47573;43.832;5.974;2023-09-30T21:17:23;84.10;;;53.53;;
61673;SDS011;47573;43.832;5.974;2023-09-30T21:24:04;86.88;;;56.88;;
61673;SDS011;47573;43.832;5.974;2023-09-30T21:30:46;68.07;;;45.90;;
61673;SDS011;47573;43.832;5.974;2023-09-30T21:37:27;72.27;;;46.93;;
61673;SDS011;47573;43.832;5.974;2023-09-30T21:44:07;73.90;;;49.43;;
61673;SDS011;47573;43.832;5.974;2023-09-30T21:50:49;75.60;;;48.30;;
61673;SDS011;47573;43.832;5.974;2023-09-30T21:57:30;74.87;;;49.40;;
61673;SDS011;47573;43.832;5.974;2023-09-30T22:04:10;61.38;;;42.20;;
61673;SDS011;47573;43.832;5.974;2023-09-30T22:10:53;90.87;;;61.30;;
61673;SDS011;47573;43.832;5.974;2023-09-30T22:17:34;68.15;;;46.20;;
61673;SDS011;47573;43.832;5.974;2023-09-30T22:24:15;64.07;;;41.90;;
61673;SDS011;47573;43.832;5.974;2023-09-30T22:30:57;79.75;;;49.22;;
61673;SDS011;47573;43.832;5.974;2023-09-30T22:37:37;89.55;;;58.47;;
61673;SDS011;47573;43.832;5.974;2023-09-30T22:44:18;121.83;;;83.60;;
61673;SDS011;47573;43.832;5.974;2023-09-30T22:51:00;138.90;;;93.80;;
61673;SDS011;47573;43.832;5.974;2023-09-30T22:57:40;158.77;;;109.43;;
61673;SDS011;47573;43.832;5.974;2023-09-30T23:04:21;146.43;;;105.97;;
61673;SDS011;47573;43.832;5.974;2023-09-30T23:11:10;150.35;;;107.25;;
61673;SDS011;47573;43.832;5.974;2023-09-30T23:17:51;155.02;;;109.22;;
61673;SDS011;47573;43.832;5.974;2023-09-30T23:24:32;150.02;;;106.25;;
61673;SDS011;47573;43.832;5.974;2023-09-30T23:31:14;141.43;;;101.80;;
61673;SDS011;47573;43.832;5.974;2023-09-30T23:37:54;136.25;;;99.07;;
61673;SDS011;47573;43.832;5.974;2023-09-30T23:44:35;139.70;;;99.90;;
61673;SDS011;47573;43.832;5.974;2023-09-30T23:51:17;140.05;;;100.60;;
61673;SDS011;47573;43.832;5.974;2023-09-30T23:57:58;135.03;;;97.53;;
